sensor_id;sensor_type;location;lat;lon;timestamp;pressure;altitude;pressure_sealevel;temperature;humidity
35655;BME280;21773;50.010;19.972;2023-05-01T00:01:58;99279.50;;;10.51;47.34
35655;BME280;21773;50.010;19.972;2023-05-01T00:05:03;99284.28;;;10.49;47.81
35655;BME280;21773;50.010;19.972;2023-05-01T00:08:06;99282.63;;;10.48;47.85
35655;BME280;21773;50.010;19.972;2023-05-01T00:11:09;99288.41;;;10.51;47.79
35655;BME280;21773;50.010;19.972;2023-05-01T00:14:15;99282.19;;;10.51;47.90
35655;BME280;21773;50.010;19.972;2023-05-01T00:17:18;99290.31;;;10.44;47.80
35655;BME280;21773;50.010;19.972;2023-05-01T00:20:25;99284.97;;;10.31;48.25
35655;BME280;21773;50.010;19.972;2023-05-01T00:23:29;99278.34;;;10.20;48.62
35655;BME280;21773;50.010;19.972;2023-05-01T00:26:32;99266.31;;;9.96;48.79
35655;BME280;21773;50.010;19.972;2023-05-01T00:29:37;99290.97;;;10.07;48.64
35655;BME280;21773;50.010;19.972;2023-05-01T00:32:41;99280.41;;;10.05;48.69
35655;BME280;21773;50.010;19.972;2023-05-01T00:35:44;99295.94;;;10.03;48.77
35655;BME280;21773;50.010;19.972;2023-05-01T00:38:47;99289.50;;;9.97;49.38
35655;BME280;21773;50.010;19.972;2023-05-01T00:41:51;99290.34;;;9.98;49.05
35655;BME280;21773;50.010;19.972;2023-05-01T00:44:57;99284.94;;;9.98;48.67
35655;BME280;21773;50.010;19.972;2023-05-01T00:48:00;99288.28;;;10.00;48.71
35655;BME280;21773;50.010;19.972;2023-05-01T00:51:04;99285.19;;;9.96;48.76
35655;BME280;21773;50.010;19.972;2023-05-01T00:54:09;99284.31;;;10.02;48.48
35655;BME280;21773;50.010;19.972;2023-05-01T00:57:13;99286.19;;;10.02;48.66
35655;BME280;21773;50.010;19.972;2023-05-01T01:00:18;99290.97;;;10.00;48.35
35655;BME280;21773;50.010;19.972;2023-05-01T01:03:24;99293.06;;;9.91;48.39
35655;BME280;21773;50.010;19.972;2023-05-01T01:06:32;99299.84;;;9.87;48.60
35655;BME280;21773;50.010;19.972;2023-05-01T01:09:44;99292.41;;;9.83;48.78
35655;BME280;21773;50.010;19.972;2023-05-01T01:12:59;99294.09;;;9.77;48.76
35655;BME280;21773;50.010;19.972;2023-05-01T01:16:14;99293.66;;;9.67;48.88
35655;BME280;21773;50.010;19.972;2023-05-01T01:23:02;99286.63;;;9.86;48.34
35655;BME280;21773;50.010;19.972;2023-05-01T01:26:23;99284.97;;;9.85;48.50
35655;BME280;21773;50.010;19.972;2023-05-01T01:30:04;99286.00;;;9.84;48.42
35655;BME280;21773;50.010;19.972;2023-05-01T01:33:24;99284.34;;;9.89;
35655;BME280;21773;50.010;19.972;2023-05-01T01:36:40;99287.88;;;9.90;47.78
35655;BME280;21773;50.010;19.972;2023-05-01T01:39:46;99287.47;;;9.86;48.00
35655;BME280;21773;50.010;19.972;2023-05-01T01:42:56;99287.44;;;9.80;47.83
35655;BME280;21773;50.010;19.972;2023-05-01T01:46:05;99286.63;;;9.79;47.88
35655;BME280;21773;50.010;19.972;2023-05-01T01:49:14;99281.66;;;9.76;47.85
35655;BME280;21773;50.010;19.972;2023-05-01T01:52:23;99282.69;;;9.75;47.82
35655;BME280;21773;50.010;19.972;2023-05-01T01:55:29;99272.34;;;9.72;48.31
35655;BME280;21773;50.010;19.972;2023-05-01T01:58:35;99275.63;;;9.61;48.66
35655;BME280;21773;50.010;19.972;2023-05-01T02:01:40;99272.09;;;9.54;48.65
35655;BME280;21773;50.010;19.972;2023-05-01T02:04:47;99269.00;;;9.50;48.46
35655;BME280;21773;50.010;19.972;2023-05-01T02:07:53;99271.06;;;9.48;48.50
35655;BME280;21773;50.010;19.972;2023-05-01T02:10:59;99270.84;;;9.50;48.60
35655;BME280;21773;50.010;19.972;2023-05-01T02:14:04;99276.44;;;9.48;48.82
35655;BME280;21773;50.010;19.972;2023-05-01T02:17:10;99259.66;;;9.40;48.95
35655;BME280;21773;50.010;19.972;2023-05-01T02:20:15;99261.94;;;9.36;48.99
35655;BME280;21773;50.010;19.972;2023-05-01T02:23:20;99260.25;;;9.29;49.34
35655;BME280;21773;50.010;19.972;2023-05-01T02:26:25;99257.97;;;9.19;49.38
35655;BME280;21773;50.010;19.972;2023-05-01T02:29:31;99260.44;;;9.14;49.76
35655;BME280;21773;50.010;19.972;2023-05-01T02:32:34;99264.19;;;9.13;49.87
35655;BME280;21773;50.010;19.972;2023-05-01T02:35:40;99259.00;;;9.11;49.71
35655;BME280;21773;50.010;19.972;2023-05-01T02:38:46;99262.50;;;9.12;50.00
35655;BME280;21773;50.010;19.972;2023-05-01T02:41:53;99236.41;;;8.93;49.70
35655;BME280;21773;50.010;19.972;2023-05-01T02:45:02;99270.59;;;9.12;49.92
35655;BME280;21773;50.010;19.972;2023-05-01T02:48:07;99262.09;;;9.08;49.78
35655;BME280;21773;50.010;19.972;2023-05-01T02:51:12;99262.47;;;9.05;49.94
35655;BME280;21773;50.010;19.972;2023-05-01T02:54:17;99257.69;;;8.94;50.27
35655;BME280;21773;50.010;19.972;2023-05-01T02:57:22;99258.28;;;8.90;50.44
35655;BME280;21773;50.010;19.972;2023-05-01T03:00:25;99255.59;;;8.90;50.26
35655;BME280;21773;50.010;19.972;2023-05-01T03:03:29;99256.28;;;8.98;50.27
35655;BME280;21773;50.010;19.972;2023-05-01T03:06:33;99253.59;;;8.98;50.39
35655;BME280;21773;50.010;19.972;2023-05-01T03:09:37;99249.84;;;8.99;50.52
35655;BME280;21773;50.010;19.972;2023-05-01T03:12:41;99240.94;;;8.92;50.60
35655;BME280;21773;50.010;19.972;2023-05-01T03:15:45;99250.44;;;8.95;50.40
35655;BME280;21773;50.010;19.972;2023-05-01T03:18:48;99252.31;;;8.94;50.38
35655;BME280;21773;50.010;19.972;2023-05-01T03:21:52;99242.59;;;8.93;50.36
35655;BME280;21773;50.010;19.972;2023-05-01T03:24:56;99236.59;;;8.91;50.43
35655;BME280;21773;50.010;19.972;2023-05-01T03:28:00;99237.63;;;8.90;50.55
35655;BME280;21773;50.010;19.972;2023-05-01T03:31:03;99242.81;;;8.92;50.18
35655;BME280;21773;50.010;19.972;2023-05-01T03:34:07;99228.72;;;8.90;50.34
35655;BME280;21773;50.010;19.972;2023-05-01T03:37:11;99225.22;;;8.89;49.97
35655;BME280;21773;50.010;19.972;2023-05-01T03:40:16;99228.34;;;8.93;49.96
35655;BME280;21773;50.010;19.972;2023-05-01T03:43:39;99236.19;;;9.01;50.12
35655;BME280;21773;50.010;19.972;2023-05-01T03:46:51;99223.19;;;8.98;50.09
35655;BME280;21773;50.010;19.972;2023-05-01T03:49:58;99223.63;;;9.08;49.69
35655;BME280;21773;50.010;19.972;2023-05-01T03:53:06;99221.34;;;9.11;49.24
35655;BME280;21773;50.010;19.972;2023-05-01T03:56:11;99219.50;;;9.19;49.23
35655;BME280;21773;50.010;19.972;2023-05-01T03:59:14;99213.50;;;9.23;49.25
35655;BME280;21773;50.010;19.972;2023-05-01T04:02:17;99224.28;;;9.36;49.30
35655;BME280;21773;50.010;19.972;2023-05-01T04:05:21;99228.00;;;9.48;49.32
35655;BME280;21773;50.010;19.972;2023-05-01T04:08:27;99205.84;;;9.46;49.43
35655;BME280;21773;50.010;19.972;2023-05-01T04:11:32;99231.31;;;9.70;49.50
35655;BME280;21773;50.010;19.972;2023-05-01T04:14:36;99218.47;;;9.85;49.69
35655;BME280;21773;50.010;19.972;2023-05-01T04:17:39;99222.41;;;9.96;49.59
35655;BME280;21773;50.010;19.972;2023-05-01T04:20:44;99222.16;;;10.04;49.47
35655;BME280;21773;50.010;19.972;2023-05-01T04:23:48;99229.00;;;10.20;49.20
35655;BME280;21773;50.010;19.972;2023-05-01T04:26:53;99222.09;;;10.37;49.13
35655;BME280;21773;50.010;19.972;2023-05-01T04:29:56;99227.03;;;10.53;48.96
35655;BME280;21773;50.010;19.972;2023-05-01T04:33:00;99224.47;;;10.71;48.80
35655;BME280;21773;50.010;19.972;2023-05-01T04:36:05;99230.22;;;10.88;48.35
35655;BME280;21773;50.010;19.972;2023-05-01T04:39:09;99227.41;;;11.08;48.11
35655;BME280;21773;50.010;19.972;2023-05-01T04:42:14;99212.78;;;11.22;48.13
35655;BME280;21773;50.010;19.972;2023-05-01T04:45:18;99218.63;;;11.44;47.69
35655;BME280;21773;50.010;19.972;2023-05-01T04:48:21;99229.53;;;11.62;47.68
35655;BME280;21773;50.010;19.972;2023-05-01T04:51:25;99222.16;;;11.76;47.57
35655;BME280;21773;50.010;19.972;2023-05-01T04:54:30;99226.94;;;11.98;46.65
35655;BME280;21773;50.010;19.972;2023-05-01T04:57:35;99219.97;;;12.09;46.16
35655;BME280;21773;50.010;19.972;2023-05-01T05:00:41;99221.84;;;12.27;45.66
35655;BME280;21773;50.010;19.972;2023-05-01T05:03:50;99217.97;;;12.41;44.61
35655;BME280;21773;50.010;19.972;2023-05-01T05:06:53;99215.69;;;12.56;44.09
35655;BME280;21773;50.010;19.972;2023-05-01T05:10:06;99216.28;;;12.76;44.02
35655;BME280;21773;50.010;19.972;2023-05-01T05:13:11;99215.31;;;12.89;43.55
35655;BME280;21773;50.010;19.972;2023-05-01T05:16:15;99223.22;;;13.02;43.03
35655;BME280;21773;50.010;19.972;2023-05-01T05:19:19;99222.38;;;13.20;42.95
35655;BME280;21773;50.010;19.972;2023-05-01T05:22:22;99218.44;;;13.34;42.21
35655;BME280;21773;50.010;19.972;2023-05-01T05:25:53;99217.53;;;13.52;41.92
35655;BME280;21773;50.010;19.972;2023-05-01T05:28:57;99212.47;;;13.55;40.71
35655;BME280;21773;50.010;19.972;2023-05-01T05:32:01;99217.78;;;13.73;40.57
35655;BME280;21773;50.010;19.972;2023-05-01T05:35:05;99223.22;;;13.85;40.91
35655;BME280;21773;50.010;19.972;2023-05-01T05:38:08;99224.88;;;13.98;40.38
35655;BME280;21773;50.010;19.972;2023-05-01T05:41:15;99213.34;;;14.02;40.58
35655;BME280;21773;50.010;19.972;2023-05-01T05:44:20;99218.31;;;14.17;40.35
35655;BME280;21773;50.010;19.972;2023-05-01T05:47:24;99220.88;;;14.35;39.98
35655;BME280;21773;50.010;19.972;2023-05-01T05:50:27;99222.41;;;14.54;39.65
35655;BME280;21773;50.010;19.972;2023-05-01T05:53:32;99221.66;;;14.70;39.10
35655;BME280;21773;50.010;19.972;2023-05-01T05:56:35;99219.22;;;14.86;38.78
35655;BME280;21773;50.010;19.972;2023-05-01T05:59:41;99227.78;;;15.06;38.52
35655;BME280;21773;50.010;19.972;2023-05-01T06:02:48;99226.78;;;15.24;38.03
35655;BME280;21773;50.010;19.972;2023-05-01T06:05:53;99229.19;;;15.37;38.40
35655;BME280;21773;50.010;19.972;2023-05-01T06:08:57;99219.22;;;15.54;38.25
35655;BME280;21773;50.010;19.972;2023-05-01T06:12:01;99222.50;;;15.73;38.31
35655;BME280;21773;50.010;19.972;2023-05-01T06:15:09;99221.84;;;15.82;36.14
35655;BME280;21773;50.010;19.972;2023-05-01T06:18:17;99224.88;;;16.02;36.79
35655;BME280;21773;50.010;19.972;2023-05-01T06:21:21;99219.72;;;16.23;36.97
35655;BME280;21773;50.010;19.972;2023-05-01T06:24:24;99195.91;;;16.13;34.96
35655;BME280;21773;50.010;19.972;2023-05-01T06:27:31;99206.34;;;16.38;35.29
35655;BME280;21773;50.010;19.972;2023-05-01T06:30:35;99221.97;;;16.64;35.61
35655;BME280;21773;50.010;19.972;2023-05-01T06:33:39;99221.72;;;16.87;35.77
35655;BME280;21773;50.010;19.972;2023-05-01T06:36:53;99223.44;;;17.20;35.45
35655;BME280;21773;50.010;19.972;2023-05-01T06:39:57;99223.03;;;17.33;33.97
35655;BME280;21773;50.010;19.972;2023-05-01T06:43:01;99222.66;;;17.52;33.82
35655;BME280;21773;50.010;19.972;2023-05-01T06:46:05;99226.38;;;17.41;33.45
35655;BME280;21773;50.010;19.972;2023-05-01T06:49:09;99219.59;;;17.43;33.28
35655;BME280;21773;50.010;19.972;2023-05-01T06:52:13;99220.72;;;17.47;33.88
35655;BME280;21773;50.010;19.972;2023-05-01T06:55:16;99219.53;;;17.38;33.06
35655;BME280;21773;50.010;19.972;2023-05-01T06:58:19;99221.44;;;17.64;34.17
35655;BME280;21773;50.010;19.972;2023-05-01T07:01:27;99220.66;;;18.01;33.00
35655;BME280;21773;50.010;19.972;2023-05-01T07:04:34;99212.78;;;18.09;32.26
35655;BME280;21773;50.010;19.972;2023-05-01T07:07:37;99203.91;;;18.29;31.69
35655;BME280;21773;50.010;19.972;2023-05-01T07:10:51;99205.63;;;18.40;29.61
35655;BME280;21773;50.010;19.972;2023-05-01T07:13:55;99203.25;;;18.54;28.60
35655;BME280;21773;50.010;19.972;2023-05-01T07:16:59;99204.13;;;18.65;28.69
35655;BME280;21773;50.010;19.972;2023-05-01T07:20:03;99207.16;;;18.68;28.41
35655;BME280;21773;50.010;19.972;2023-05-01T07:23:07;99209.91;;;18.26;28.40
35655;BME280;21773;50.010;19.972;2023-05-01T07:26:10;99210.03;;;18.46;28.43
35655;BME280;21773;50.010;19.972;2023-05-01T07:29:14;99216.69;;;18.60;28.68
35655;BME280;21773;50.010;19.972;2023-05-01T07:32:19;99207.53;;;18.40;28.04
35655;BME280;21773;50.010;19.972;2023-05-01T07:35:22;99217.44;;;18.09;28.06
35655;BME280;21773;50.010;19.972;2023-05-01T07:38:25;99207.13;;;18.63;29.41
35655;BME280;21773;50.010;19.972;2023-05-01T07:41:29;99213.81;;;18.92;27.96
35655;BME280;21773;50.010;19.972;2023-05-01T07:44:33;99209.66;;;18.80;28.28
35655;BME280;21773;50.010;19.972;2023-05-01T07:47:37;99210.88;;;19.19;28.83
35655;BME280;21773;50.010;19.972;2023-05-01T07:50:41;99211.19;;;19.38;26.94
35655;BME280;21773;50.010;19.972;2023-05-01T07:53:44;99210.09;;;19.29;26.03
35655;BME280;21773;50.010;19.972;2023-05-01T07:56:48;99214.53;;;19.60;28.14
35655;BME280;21773;50.010;19.972;2023-05-01T07:59:53;99201.41;;;19.77;26.95
35655;BME280;21773;50.010;19.972;2023-05-01T08:02:59;99204.69;;;19.89;25.39
35655;BME280;21773;50.010;19.972;2023-05-01T08:06:03;99208.22;;;19.70;26.16
35655;BME280;21773;50.010;19.972;2023-05-01T08:09:06;99212.03;;;19.43;25.78
35655;BME280;21773;50.010;19.972;2023-05-01T08:12:10;99203.59;;;19.70;26.54
35655;BME280;21773;50.010;19.972;2023-05-01T08:15:13;99211.53;;;20.07;26.13
35655;BME280;21773;50.010;19.972;2023-05-01T08:18:18;99217.00;;;20.12;24.55
35655;BME280;21773;50.010;19.972;2023-05-01T08:21:22;99208.47;;;20.29;25.47
35655;BME280;21773;50.010;19.972;2023-05-01T08:24:25;99212.25;;;20.53;25.74
35655;BME280;21773;50.010;19.972;2023-05-01T08:27:29;99216.44;;;21.05;25.60
35655;BME280;21773;50.010;19.972;2023-05-01T08:30:32;99210.38;;;21.18;24.93
35655;BME280;21773;50.010;19.972;2023-05-01T08:33:37;99207.38;;;21.14;25.35
35655;BME280;21773;50.010;19.972;2023-05-01T08:36:42;99205.81;;;21.42;25.23
35655;BME280;21773;50.010;19.972;2023-05-01T08:39:46;99203.81;;;21.92;26.31
35655;BME280;21773;50.010;19.972;2023-05-01T08:42:49;99201.09;;;22.21;24.68
35655;BME280;21773;50.010;19.972;2023-05-01T08:45:55;99192.56;;;22.46;24.42
35655;BME280;21773;50.010;19.972;2023-05-01T08:49:03;99192.97;;;22.34;24.16
35655;BME280;21773;50.010;19.972;2023-05-01T08:52:10;99194.03;;;22.10;25.38
35655;BME280;21773;50.010;19.972;2023-05-01T08:55:14;99191.16;;;22.25;24.69
35655;BME280;21773;50.010;19.972;2023-05-01T08:58:18;99195.59;;;22.21;24.61
35655;BME280;21773;50.010;19.972;2023-05-01T09:01:23;99197.19;;;21.98;25.27
35655;BME280;21773;50.010;19.972;2023-05-01T09:04:31;99188.88;;;22.08;25.05
35655;BME280;21773;50.010;19.972;2023-05-01T09:07:35;99196.47;;;21.82;25.44
35655;BME280;21773;50.010;19.972;2023-05-01T09:10:44;99193.25;;;21.36;25.90
35655;BME280;21773;50.010;19.972;2023-05-01T09:13:48;99176.41;;;21.87;26.52
35655;BME280;21773;50.010;19.972;2023-05-01T09:16:52;99181.56;;;22.22;25.11
35655;BME280;21773;50.010;19.972;2023-05-01T09:19:57;99173.50;;;22.55;25.46
35655;BME280;21773;50.010;19.972;2023-05-01T09:23:00;99172.47;;;22.74;23.76
35655;BME280;21773;50.010;19.972;2023-05-01T09:26:04;99171.31;;;22.99;25.18
35655;BME280;21773;50.010;19.972;2023-05-01T09:29:08;99161.88;;;23.43;24.13
35655;BME280;21773;50.010;19.972;2023-05-01T09:32:13;99159.00;;;23.34;22.73
35655;BME280;21773;50.010;19.972;2023-05-01T09:35:19;99164.78;;;22.95;22.49
35655;BME280;21773;50.010;19.972;2023-05-01T09:38:23;99162.34;;;23.31;24.01
35655;BME280;21773;50.010;19.972;2023-05-01T09:41:27;99153.78;;;23.51;22.50
35655;BME280;21773;50.010;19.972;2023-05-01T09:44:39;99143.09;;;23.31;21.91
35655;BME280;21773;50.010;19.972;2023-05-01T09:47:44;99149.63;;;23.35;22.38
35655;BME280;21773;50.010;19.972;2023-05-01T09:50:49;99152.75;;;23.47;22.90
35655;BME280;21773;50.010;19.972;2023-05-01T09:53:54;99143.28;;;23.86;23.71
35655;BME280;21773;50.010;19.972;2023-05-01T09:56:57;99138.19;;;24.39;23.37
35655;BME280;21773;50.010;19.972;2023-05-01T10:00:01;99132.88;;;24.70;23.92
35655;BME280;21773;50.010;19.972;2023-05-01T10:03:12;99136.47;;;24.43;21.87
35655;BME280;21773;50.010;19.972;2023-05-01T10:06:26;99132.28;;;24.73;22.38
35655;BME280;21773;50.010;19.972;2023-05-01T10:09:30;99128.59;;;24.77;22.51
35655;BME280;21773;50.010;19.972;2023-05-01T10:12:34;99124.56;;;24.83;21.61
35655;BME280;21773;50.010;19.972;2023-05-01T10:15:38;99117.59;;;25.13;22.73
35655;BME280;21773;50.010;19.972;2023-05-01T10:18:42;99122.41;;;25.08;20.18
35655;BME280;21773;50.010;19.972;2023-05-01T10:21:48;99107.00;;;25.07;21.10
35655;BME280;21773;50.010;19.972;2023-05-01T10:24:51;99104.72;;;24.18;20.38
35655;BME280;21773;50.010;19.972;2023-05-01T10:27:54;99099.50;;;24.30;21.13
35655;BME280;21773;50.010;19.972;2023-05-01T10:30:59;99096.53;;;24.68;23.06
35655;BME280;21773;50.010;19.972;2023-05-01T10:34:03;99103.94;;;24.94;20.80
35655;BME280;21773;50.010;19.972;2023-05-01T10:37:13;99096.69;;;24.98;21.68
35655;BME280;21773;50.010;19.972;2023-05-01T10:40:45;99098.09;;;25.10;21.21
35655;BME280;21773;50.010;19.972;2023-05-01T10:44:20;99099.72;;;25.33;21.47
35655;BME280;21773;50.010;19.972;2023-05-01T10:47:44;99090.44;;;25.29;20.40
35655;BME280;21773;50.010;19.972;2023-05-01T10:51:07;99089.16;;;24.77;19.31
35655;BME280;21773;50.010;19.972;2023-05-01T10:54:23;99089.41;;;24.53;20.42
35655;BME280;21773;50.010;19.972;2023-05-01T10:57:40;99089.78;;;24.87;21.41
35655;BME280;21773;50.010;19.972;2023-05-01T11:04:48;99076.91;;;24.69;21.09
35655;BME280;21773;50.010;19.972;2023-05-01T11:11:46;99067.53;;;24.70;19.89
35655;BME280;21773;50.010;19.972;2023-05-01T11:15:01;99057.78;;;24.37;19.58
35655;BME280;21773;50.010;19.972;2023-05-01T11:18:08;99063.47;;;24.13;20.39
35655;BME280;21773;50.010;19.972;2023-05-01T11:21:13;99051.13;;;24.51;21.71
35655;BME280;21773;50.010;19.972;2023-05-01T11:24:18;99054.00;;;24.96;20.60
35655;BME280;21773;50.010;19.972;2023-05-01T11:27:22;99052.88;;;24.97;20.41
35655;BME280;21773;50.010;19.972;2023-05-01T11:30:35;99047.34;;;24.83;19.55
35655;BME280;21773;50.010;19.972;2023-05-01T11:33:38;99051.25;;;24.96;20.88
35655;BME280;21773;50.010;19.972;2023-05-01T11:36:46;99037.59;;;25.35;21.11
35655;BME280;21773;50.010;19.972;2023-05-01T11:39:50;99024.13;;;25.42;19.67
35655;BME280;21773;50.010;19.972;2023-05-01T11:43:01;99025.41;;;25.14;19.99
35655;BME280;21773;50.010;19.972;2023-05-01T11:46:05;99024.47;;;25.41;20.75
35655;BME280;21773;50.010;19.972;2023-05-01T11:49:10;99019.47;;;25.74;20.64
35655;BME280;21773;50.010;19.972;2023-05-01T11:52:13;99039.41;;;24.82;19.34
35655;BME280;21773;50.010;19.972;2023-05-01T11:55:17;99025.16;;;25.24;21.21
35655;BME280;21773;50.010;19.972;2023-05-01T11:58:32;99014.06;;;25.60;20.98
35655;BME280;21773;50.010;19.972;2023-05-01T12:01:38;99015.63;;;26.23;20.36
35655;BME280;21773;50.010;19.972;2023-05-01T12:04:42;99011.94;;;26.62;20.71
35655;BME280;21773;50.010;19.972;2023-05-01T12:07:45;99010.63;;;26.59;19.03
35655;BME280;21773;50.010;19.972;2023-05-01T12:10:50;99009.34;;;26.48;18.57
35655;BME280;21773;50.010;19.972;2023-05-01T12:13:55;98995.72;;;26.21;19.26
35655;BME280;21773;50.010;19.972;2023-05-01T12:16:59;98997.66;;;25.64;19.02
35655;BME280;21773;50.010;19.972;2023-05-01T12:20:05;98993.63;;;25.70;19.14
35655;BME280;21773;50.010;19.972;2023-05-01T12:23:11;98990.00;;;25.61;19.53
35655;BME280;21773;50.010;19.972;2023-05-01T12:26:16;98978.44;;;25.90;21.23
35655;BME280;21773;50.010;19.972;2023-05-01T12:29:21;98975.00;;;26.41;20.63
35655;BME280;21773;50.010;19.972;2023-05-01T12:32:29;98965.09;;;26.83;20.66
35655;BME280;21773;50.010;19.972;2023-05-01T12:35:33;98976.47;;;26.81;18.84
35655;BME280;21773;50.010;19.972;2023-05-01T12:38:37;98977.63;;;27.06;19.89
35655;BME280;21773;50.010;19.972;2023-05-01T12:41:43;98960.53;;;27.04;18.63
35655;BME280;21773;50.010;19.972;2023-05-01T12:44:57;98962.19;;;26.96;18.55
35655;BME280;21773;50.010;19.972;2023-05-01T12:48:02;98949.41;;;26.18;19.36
35655;BME280;21773;50.010;19.972;2023-05-01T12:51:17;98953.53;;;26.29;19.48
35655;BME280;21773;50.010;19.972;2023-05-01T12:54:22;98947.19;;;26.46;18.49
35655;BME280;21773;50.010;19.972;2023-05-01T12:57:25;98932.44;;;25.45;18.69
35655;BME280;21773;50.010;19.972;2023-05-01T13:00:40;98942.56;;;25.59;19.93
35655;BME280;21773;50.010;19.972;2023-05-01T13:03:44;98935.94;;;25.60;19.36
35655;BME280;21773;50.010;19.972;2023-05-01T13:06:47;98941.22;;;25.96;18.87
35655;BME280;21773;50.010;19.972;2023-05-01T13:09:52;98931.13;;;25.91;18.93
35655;BME280;21773;50.010;19.972;2023-05-01T13:12:55;98930.53;;;26.03;19.23
35655;BME280;21773;50.010;19.972;2023-05-01T13:16:08;98924.69;;;26.13;17.83
35655;BME280;21773;50.010;19.972;2023-05-01T13:19:23;98925.69;;;26.25;18.03
35655;BME280;21773;50.010;19.972;2023-05-01T13:22:29;98915.81;;;26.33;18.78
35655;BME280;21773;50.010;19.972;2023-05-01T13:25:33;98915.31;;;26.22;17.79
35655;BME280;21773;50.010;19.972;2023-05-01T13:28:42;98903.19;;;25.93;17.73
35655;BME280;21773;50.010;19.972;2023-05-01T13:31:48;98901.41;;;25.49;18.36
35655;BME280;21773;50.010;19.972;2023-05-01T13:34:52;98901.00;;;25.55;19.22
35655;BME280;21773;50.010;19.972;2023-05-01T13:37:56;98898.00;;;25.52;19.54
35655;BME280;21773;50.010;19.972;2023-05-01T13:40:59;98888.63;;;25.22;18.23
35655;BME280;21773;50.010;19.972;2023-05-01T13:44:05;98882.22;;;25.04;18.96
35655;BME280;21773;50.010;19.972;2023-05-01T13:47:14;98879.66;;;25.47;19.68
35655;BME280;21773;50.010;19.972;2023-05-01T13:50:18;98879.06;;;25.59;18.14
35655;BME280;21773;50.010;19.972;2023-05-01T13:53:22;98877.19;;;25.85;19.09
35655;BME280;21773;50.010;19.972;2023-05-01T13:56:26;98885.00;;;26.00;18.77
35655;BME280;21773;50.010;19.972;2023-05-01T13:59:39;98887.91;;;25.86;18.23
35655;BME280;21773;50.010;19.972;2023-05-01T14:02:46;98874.44;;;26.02;18.51
35655;BME280;21773;50.010;19.972;2023-05-01T14:05:51;98875.22;;;25.85;18.88
35655;BME280;21773;50.010;19.972;2023-05-01T14:08:56;98865.50;;;25.88;17.85
35655;BME280;21773;50.010;19.972;2023-05-01T14:12:00;98867.44;;;26.05;19.14
35655;BME280;21773;50.010;19.972;2023-05-01T14:15:07;98860.78;;;25.97;18.43
35655;BME280;21773;50.010;19.972;2023-05-01T14:18:15;98858.03;;;26.06;18.76
35655;BME280;21773;50.010;19.972;2023-05-01T14:21:19;98841.63;;;26.09;18.24
35655;BME280;21773;50.010;19.972;2023-05-01T14:24:23;98839.41;;;26.28;18.89
35655;BME280;21773;50.010;19.972;2023-05-01T14:27:27;98836.78;;;26.41;18.04
35655;BME280;21773;50.010;19.972;2023-05-01T14:30:32;98839.03;;;26.04;17.93
35655;BME280;21773;50.010;19.972;2023-05-01T14:33:40;98832.50;;;25.92;17.88
35655;BME280;21773;50.010;19.972;2023-05-01T14:36:44;98823.47;;;25.43;18.12
35655;BME280;21773;50.010;19.972;2023-05-01T14:39:47;98820.00;;;25.29;18.44
35655;BME280;21773;50.010;19.972;2023-05-01T14:42:52;98813.47;;;25.16;18.59
35655;BME280;21773;50.010;19.972;2023-05-01T14:45:55;98819.19;;;25.28;19.07
35655;BME280;21773;50.010;19.972;2023-05-01T14:49:01;98812.66;;;24.85;18.21
35655;BME280;21773;50.010;19.972;2023-05-01T14:52:04;98812.09;;;24.74;18.65
35655;BME280;21773;50.010;19.972;2023-05-01T14:55:10;98807.13;;;24.85;19.62
35655;BME280;21773;50.010;19.972;2023-05-01T14:58:14;98816.03;;;25.04;19.65
35655;BME280;21773;50.010;19.972;2023-05-01T15:01:17;98806.72;;;24.91;19.34
35655;BME280;21773;50.010;19.972;2023-05-01T15:04:22;98804.50;;;24.80;19.35
35655;BME280;21773;50.010;19.972;2023-05-01T15:07:26;98803.41;;;24.58;18.79
35655;BME280;21773;50.010;19.972;2023-05-01T15:10:29;98796.94;;;24.63;19.32
35655;BME280;21773;50.010;19.972;2023-05-01T15:13:33;98795.66;;;24.60;19.78
35655;BME280;21773;50.010;19.972;2023-05-01T15:16:37;98781.69;;;24.57;19.64
35655;BME280;21773;50.010;19.972;2023-05-01T15:19:42;98781.00;;;24.51;19.27
35655;BME280;21773;50.010;19.972;2023-05-01T15:22:45;98793.59;;;24.66;20.30
35655;BME280;21773;50.010;19.972;2023-05-01T15:25:48;98795.22;;;24.67;20.27
35655;BME280;21773;50.010;19.972;2023-05-01T15:28:52;98787.00;;;24.76;20.10
35655;BME280;21773;50.010;19.972;2023-05-01T15:31:55;98784.38;;;24.48;20.31
35655;BME280;21773;50.010;19.972;2023-05-01T15:35:14;98774.31;;;24.44;20.04
35655;BME280;21773;50.010;19.972;2023-05-01T15:38:18;98768.06;;;24.30;20.06
35655;BME280;21773;50.010;19.972;2023-05-01T15:41:22;98782.09;;;24.20;20.19
35655;BME280;21773;50.010;19.972;2023-05-01T15:44:25;98786.25;;;23.95;20.21
35655;BME280;21773;50.010;19.972;2023-05-01T15:47:29;98772.09;;;23.88;20.85
35655;BME280;21773;50.010;19.972;2023-05-01T15:50:34;98768.13;;;23.94;21.58
35655;BME280;21773;50.010;19.972;2023-05-01T15:53:37;98768.78;;;23.77;21.70
35655;BME280;21773;50.010;19.972;2023-05-01T15:56:40;98766.38;;;23.62;21.63
35655;BME280;21773;50.010;19.972;2023-05-01T15:59:43;98782.28;;;23.38;21.97
35655;BME280;21773;50.010;19.972;2023-05-01T16:02:47;98773.97;;;23.15;22.08
35655;BME280;21773;50.010;19.972;2023-05-01T16:05:52;98759.41;;;23.15;22.48
35655;BME280;21773;50.010;19.972;2023-05-01T16:08:57;98766.63;;;23.11;22.49
35655;BME280;21773;50.010;19.972;2023-05-01T16:12:00;98760.00;;;23.25;22.70
35655;BME280;21773;50.010;19.972;2023-05-01T16:15:05;98755.81;;;23.28;23.13
35655;BME280;21773;50.010;19.972;2023-05-01T16:18:08;98758.28;;;23.16;22.70
35655;BME280;21773;50.010;19.972;2023-05-01T16:21:20;98753.47;;;23.08;23.44
35655;BME280;21773;50.010;19.972;2023-05-01T16:24:23;98751.44;;;23.00;23.29
35655;BME280;21773;50.010;19.972;2023-05-01T16:27:27;98745.53;;;22.93;23.29